Time;durP1;ratioP1;P1;durP2;ratioP2;P2;SDS_P1;SDS_P2;PMS_P1;PMS_P2;Temp;Humidity;BMP_temperature;BMP_pressure;BME280_temperature;BME280_humidity;BME280_pressure;Samples;Min_cycle;Max_cycle;Signal;HPM_P1;HPM_P2
2022/04/30 00:02:07;;;;;;;23.23;14.20;;;;;;;10.48;75.65;101036.50;5110985;28;20027;-65
2022/04/30 00:04:36;;;;;;;27.70;15.00;;;;;;;10.47;75.31;101037.47;5110634;28;20395;-66
2022/04/30 00:07:03;;;;;;;24.08;15.23;;;;;;;10.39;75.25;101026.50;5110718;28;20099;-65
2022/04/30 00:09:29;;;;;;;24.80;15.13;;;;;;;10.34;74.98;101025.97;5110732;28;20020;-66
2022/04/30 00:11:54;;;;;;;28.33;15.27;;;;;;;10.32;74.55;101019.88;5110628;28;20069;-65
2022/04/30 00:14:20;;;;;;;26.55;14.38;;;;;;;10.31;75.44;101026.22;5110887;28;20039;-65
2022/04/30 00:16:46;;;;;;;23.40;15.00;;;;;;;10.26;76.33;101020.34;5110582;28;20074;-65
2022/04/30 00:19:12;;;;;;;24.85;15.15;;;;;;;10.32;76.22;101035.94;5110545;28;20537;-65
2022/04/30 00:21:37;;;;;;;31.65;15.73;;;;;;;10.30;76.21;101045.09;5092285;28;20015;-65
2022/04/30 00:24:03;;;;;;;26.65;15.40;;;;;;;10.27;76.53;101038.13;5110509;28;20027;-65
2022/04/30 00:26:28;;;;;;;24.95;15.48;;;;;;;10.21;77.22;101033.22;5110523;28;20035;-65
2022/04/30 00:28:54;;;;;;;25.02;15.88;;;;;;;10.18;76.87;101028.09;5110658;28;20034;-65
2022/04/30 00:31:19;;;;;;;25.05;16.33;;;;;;;10.20;76.88;101044.06;5110393;28;20023;-65
2022/04/30 00:33:48;;;;;;;22.17;15.13;;;;;;;10.18;76.43;101041.50;5092774;28;20091;-72
2022/04/30 00:36:14;;;;;;;24.95;14.75;;;;;;;10.13;76.53;101034.78;5110844;28;20024;-72
2022/04/30 00:38:40;;;;;;;32.05;15.02;;;;;;;10.06;75.83;101029.00;5110628;28;20047;-72
2022/04/30 00:41:09;;;;;;;22.05;15.20;;;;;;;10.09;75.52;101038.66;5110467;28;20087;-72
2022/04/30 00:43:54;;;;;;;22.73;13.35;;;;;;;10.05;75.23;101027.28;5110184;28;20477;-71
2022/04/30 00:46:21;;;;;;;;;;;;;;;10.08;75.82;101039.63;5110882;28;20054;-71
2022/04/30 00:48:46;;;;;;;21.52;12.30;;;;;;;10.07;75.21;101022.69;5110691;28;19918;-72
2022/04/30 00:51:14;;;;;;;21.58;13.27;;;;;;;10.05;74.95;101038.00;5110433;28;20019;-71
2022/04/30 00:53:41;;;;;;;23.27;13.02;;;;;;;9.98;74.66;101023.34;5110247;28;20032;-72
2022/04/30 00:56:09;;;;;;;19.60;12.65;;;;;;;10.00;74.36;101033.94;5110689;28;20153;-71
2022/04/30 00:58:37;;;;;;;22.95;13.18;;;;;;;9.98;75.17;101036.75;5110134;28;20523;-71
2022/04/30 01:01:04;;;;;;;25.13;13.57;;;;;;;9.94;75.90;101029.03;5109994;28;20028;-71
2022/04/30 01:03:30;;;;;;;22.85;12.98;;;;;;;9.94;76.19;101031.72;5091732;28;20112;-71
2022/04/30 01:05:57;;;;;;;20.75;12.75;;;;;;;9.86;76.10;101016.19;5110177;28;20118;-71
2022/04/30 01:08:24;;;;;;;22.20;13.50;;;;;;;9.88;76.03;101027.69;5110310;28;20023;-72
2022/04/30 01:10:49;;;;;;;21.10;12.65;;;;;;;9.87;76.02;101009.88;5092035;28;20070;-71
2022/04/30 01:13:15;;;;;;;24.52;13.07;;;;;;;9.80;75.77;101005.09;5110333;28;20128;-71
2022/04/30 01:15:40;;;;;;;20.00;13.13;;;;;;;9.81;75.95;101018.38;5109705;28;20071;-71
2022/04/30 01:18:08;;;;;;;20.58;12.52;;;;;;;9.78;75.67;101015.94;5091697;28;20023;-72
2022/04/30 01:20:34;;;;;;;24.88;12.85;;;;;;;9.76;75.07;101009.81;5091630;28;20478;-71
2022/04/30 01:23:02;;;;;;;17.20;11.70;;;;;;;9.75;74.70;101010.78;5091782;28;20019;-72
2022/04/30 01:25:30;;;;;;;18.73;11.55;;;;;;;9.74;74.43;101011.75;5110024;28;20027;-71
2022/04/30 01:27:59;;;;;;;18.90;10.98;;;;;;;9.66;73.80;101006.09;5110138;28;20357;-72
2022/04/30 01:30:25;;;;;;;16.77;10.90;;;;;;;9.70;73.96;101018.28;5109608;28;20099;-65
2022/04/30 01:38:20;;;;;;;19.13;10.82;;;;;;;9.68;73.85;101020.25;5109971;28;20072;-65
2022/04/30 01:40:49;;;;;;;16.83;10.38;;;;;;;9.70;74.27;101018.28;5109514;28;20070;-65
2022/04/30 01:43:16;;;;;;;16.60;10.50;;;;;;;9.56;73.58;100998.84;5109551;28;20373;-66
2022/04/30 01:45:44;;;;;;;13.68;10.20;;;;;;;9.59;74.06;101012.00;5109395;28;20411;-65
2022/04/30 01:48:14;;;;;;;15.20;10.88;;;;;;;9.47;73.65;100992.34;5109430;28;20028;-65
2022/04/30 01:50:40;;;;;;;15.68;9.95;;;;;;;9.64;73.62;101021.41;5109475;28;20103;-65
2022/04/30 01:53:05;;;;;;;14.35;10.25;;;;;;;9.61;73.30;101023.47;5109425;28;20050;-66
2022/04/30 01:55:31;;;;;;;14.65;10.70;;;;;;;9.59;73.38;101026.25;5112862;28;20070;-65
2022/04/30 01:57:56;;;;;;;16.20;10.52;;;;;;;9.53;72.82;101012.44;5113249;28;20024;-65
2022/04/30 02:00:22;;;;;;;14.35;10.15;;;;;;;9.54;73.12;101017.69;5113300;28;20031;-65
2022/04/30 02:02:49;;;;;;;13.35;10.15;;;;;;;9.52;72.92;101013.44;5113228;28;20110;-65
2022/04/30 02:05:17;;;;;;;15.45;10.07;;;;;;;9.44;73.28;101003.25;5113162;28;20049;-65
2022/04/30 02:07:52;;;;;;;11.90;10.10;;;;;;;9.50;73.10;101018.91;5112757;28;20471;-65
2022/04/30 02:10:20;;;;;;;14.25;10.45;;;;;;;9.43;73.17;101001.56;5113178;28;20110;-65
2022/04/30 02:12:46;;;;;;;15.70;10.60;;;;;;;9.40;73.34;101000.91;5112916;28;20024;-66
2022/04/30 02:15:14;;;;;;;15.50;10.48;;;;;;;9.40;73.06;101007.13;5112962;28;20059;-66
2022/04/30 02:17:40;;;;;;;15.25;10.13;;;;;;;9.44;73.23;101008.63;5113086;28;20048;-66
2022/04/30 02:20:25;;;;;;;13.90;10.52;;;;;;;9.41;73.39;101011.50;5112798;28;20028;-65
2022/04/30 02:22:54;;;;;;;14.60;10.20;;;;;;;9.33;72.78;101003.19;5094822;28;20088;-66
2022/04/30 02:25:21;;;;;;;17.42;11.43;;;;;;;9.18;73.99;100978.38;5094030;28;20401;-66
2022/04/30 02:27:51;;;;;;;16.45;10.60;;;;;;;9.32;73.97;100996.09;5112503;28;20028;-65
2022/04/30 02:30:19;;;;;;;12.65;10.10;;;;;;;9.31;73.99;101005.13;5110866;28;20012;-65
2022/04/30 02:32:57;;;;;;;15.60;10.70;;;;;;;9.30;74.35;101000.75;5112567;28;20038;-71
2022/04/30 02:35:28;;;;;;;13.93;10.15;;;;;;;9.22;74.03;100989.72;5094454;28;20031;-71
2022/04/30 02:37:56;;;;;;;14.02;10.55;;;;;;;9.27;73.77;100999.16;5112770;28;20063;-71
2022/04/30 02:40:24;;;;;;;17.90;11.40;;;;;;;9.20;73.47;100995.16;5112816;28;20039;-70
2022/04/30 02:42:51;;;;;;;15.43;11.73;;;;;;;9.23;73.11;100989.59;5112858;28;20030;-71
2022/04/30 02:45:18;;;;;;;14.13;10.35;;;;;;;9.22;73.22;100993.25;5112456;28;20035;-71
2022/04/30 02:47:55;;;;;;;18.88;11.45;;;;;;;9.21;73.57;100993.34;5112485;28;20023;-71
2022/04/30 02:50:23;;;;;;;13.95;11.10;;;;;;;9.18;74.28;100989.09;5112482;28;20507;-71
2022/04/30 02:52:50;;;;;;;12.77;11.30;;;;;;;9.10;74.04;100974.53;5093993;28;20027;-71
2022/04/30 02:55:16;;;;;;;18.08;11.65;;;;;;;9.17;74.05;100981.16;5112585;28;20081;-71
2022/04/30 03:00:34;;;;;;;15.50;11.65;;;;;;;9.13;74.06;100985.03;5110603;28;20407;-71
2022/04/30 03:03:00;;;;;;;17.13;11.63;;;;;;;9.10;74.71;100978.06;5111636;28;20019;-71
2022/04/30 03:05:26;;;;;;;16.45;11.68;;;;;;;9.08;74.88;100980.00;5110579;28;20031;-65
2022/04/30 03:07:53;;;;;;;16.30;12.05;;;;;;;8.91;74.95;100952.75;5111461;28;20058;-66
2022/04/30 03:10:20;;;;;;;16.48;12.00;;;;;;;9.05;75.58;100974.00;5111249;28;20024;-65
2022/04/30 03:12:45;;;;;;;18.98;12.38;;;;;;;8.97;74.83;100963.00;5110974;28;20119;-66
2022/04/30 03:15:11;;;;;;;17.50;12.35;;;;;;;9.04;74.67;100989.22;5111079;28;20514;-65
2022/04/30 03:23:06;;;;;;;18.65;12.75;;;;;;;8.95;74.42;100976.50;5111242;28;20564;-65
2022/04/30 03:25:32;;;;;;;16.73;12.85;;;;;;;9.05;74.55;100987.38;5110812;28;20035;-65
2022/04/30 03:27:58;;;;;;;19.15;12.60;;;;;;;9.08;74.95;100985.34;5111186;28;20027;-65
2022/04/30 03:30:23;;;;;;;22.10;14.52;;;;;;;9.03;75.06;100982.13;5110858;28;20073;-65
2022/04/30 03:32:50;;;;;;;18.95;14.32;;;;;;;9.09;75.45;100987.06;5111140;28;20092;-65
2022/04/30 03:35:15;;;;;;;20.30;14.10;;;;;;;9.11;75.39;100992.31;5110768;28;20170;-65
2022/04/30 03:37:41;;;;;;;24.63;14.13;;;;;;;9.07;75.44;100986.31;5110822;28;20107;-65
2022/04/30 03:40:07;;;;;;;21.23;14.80;;;;;;;9.13;76.29;100993.06;5110753;28;20032;-65
2022/04/30 03:42:33;;;;;;;19.88;13.80;;;;;;;9.12;76.32;100994.00;5110574;28;20039;-72
2022/04/30 03:45:01;;;;;;;18.85;14.40;;;;;;;9.17;76.67;100997.22;5111022;28;20019;-65
2022/04/30 03:47:27;;;;;;;22.38;14.25;;;;;;;9.18;76.97;100996.25;5110608;28;20035;-66
2022/04/30 03:49:52;;;;;;;22.30;13.85;;;;;;;9.25;76.90;100987.69;5111012;28;20084;-65
2022/04/30 03:52:18;;;;;;;21.55;14.25;;;;;;;9.27;76.97;100992.91;5110931;28;20031;-65
2022/04/30 03:54:43;;;;;;;21.30;15.48;;;;;;;9.27;76.86;100988.44;5110110;28;20024;-65
2022/04/30 03:57:09;;;;;;;19.30;13.80;;;;;;;9.34;76.71;100999.53;5092063;28;20032;-71
2022/04/30 03:59:34;;;;;;;18.15;12.82;;;;;;;9.39;76.69;101007.25;5110063;28;20023;-71
2022/04/30 04:02:00;;;;;;;20.40;14.57;;;;;;;9.37;76.51;100996.66;5110352;28;20023;-72
2022/04/30 04:04:28;;;;;;;17.45;13.55;;;;;;;9.43;77.01;101000.69;5108182;28;20075;-72
2022/04/30 04:06:54;;;;;;;20.63;14.23;;;;;;;9.46;76.86;101003.16;5091843;28;20111;-71
2022/04/30 04:09:20;;;;;;;21.25;13.82;;;;;;;9.46;77.06;100996.00;5110112;28;20072;-71
2022/04/30 04:11:45;;;;;;;20.60;14.02;;;;;;;9.56;77.04;101007.75;5091907;28;20027;-72
2022/04/30 04:19:38;;;;;;;20.73;14.52;;;;;;;9.74;76.22;101003.69;5110128;28;20084;-72
2022/04/30 04:22:05;;;;;;;22.23;13.85;;;;;;;9.85;76.02;101006.47;5109540;28;20040;-72
2022/04/30 04:27:17;;;;;;;20.48;13.55;;;;;;;10.02;75.69;101015.91;5110607;28;20027;-72
2022/04/30 04:29:42;;;;;;;18.83;13.38;;;;;;;10.06;75.39;101012.94;5109603;28;20044;-72
2022/04/30 04:32:08;;;;;;;19.13;14.02;;;;;;;10.19;75.31;101019.06;5109767;28;20581;-72
2022/04/30 04:34:33;;;;;;;17.65;13.40;;;;;;;10.25;75.51;101012.44;5109700;28;20024;-65
2022/04/30 04:36:59;;;;;;;20.20;14.05;;;;;;;10.33;75.16;101001.97;5109483;28;20035;-65
2022/04/30 04:39:24;;;;;;;18.52;13.57;;;;;;;10.44;74.91;101010.91;5109369;28;20038;-65
2022/04/30 04:41:49;;;;;;;19.63;13.52;;;;;;;10.59;74.12;101011.56;5109388;28;20027;-65
2022/04/30 04:44:15;;;;;;;16.77;13.40;;;;;;;10.70;73.21;101014.25;5109359;28;20027;-65
2022/04/30 04:46:41;;;;;;;19.50;12.85;;;;;;;10.70;72.64;101006.19;5090949;28;20054;-65
2022/04/30 04:49:08;;;;;;;16.27;12.68;;;;;;;10.86;72.78;101012.94;5109253;28;20238;-66
2022/04/30 04:51:34;;;;;;;19.23;13.65;;;;;;;11.01;72.53;101006.41;5108948;28;20810;-65
2022/04/30 04:54:03;;;;;;;20.58;13.95;;;;;;;11.18;71.39;101013.09;5109206;28;20028;-66
2022/04/30 04:56:29;;;;;;;19.00;13.43;;;;;;;11.34;70.97;101008.22;5108826;28;20027;-65
2022/04/30 04:58:55;;;;;;;15.70;12.07;;;;;;;11.47;70.62;100999.06;5109720;28;20425;-65
2022/04/30 05:01:20;;;;;;;17.13;12.82;;;;;;;11.69;70.30;101006.25;5109635;28;20118;-66
2022/04/30 05:03:46;;;;;;;15.55;12.65;;;;;;;11.81;68.56;100999.03;5091176;28;20055;-65
2022/04/30 05:06:12;;;;;;;15.75;12.43;;;;;;;12.11;68.01;101009.94;5109692;28;20027;-65
2022/04/30 05:08:37;;;;;;;18.13;12.52;;;;;;;12.21;66.41;100992.91;5109753;28;20045;-65
2022/04/30 05:11:02;;;;;;;17.92;12.07;;;;;;;12.44;66.46;100994.50;5109573;28;20031;-65
2022/04/30 05:13:28;;;;;;;16.33;11.85;;;;;;;12.61;65.31;100999.28;5109650;28;20088;-65
2022/04/30 05:15:53;;;;;;;16.08;11.70;;;;;;;12.86;64.40;101019.56;5089989;28;20055;-65
2022/04/30 05:18:20;;;;;;;15.95;11.70;;;;;;;12.92;63.59;101002.91;5089453;28;20024;-65
2022/04/30 05:20:46;;;;;;;18.23;12.38;;;;;;;13.08;63.37;101014.94;5089561;28;20035;-65
2022/04/30 05:23:11;;;;;;;15.40;12.45;;;;;;;13.11;61.96;101019.19;5089937;28;20089;-65
2022/04/30 05:25:40;;;;;;;14.57;11.52;;;;;;;13.23;62.45;101018.13;5089341;28;20035;-66
2022/04/30 05:28:06;;;;;;;14.20;10.40;;;;;;;13.24;62.47;101000.97;5090801;28;20099;-66
2022/04/30 05:30:32;;;;;;;17.75;12.60;;;;;;;13.38;61.86;101020.31;5092935;28;20024;-66
2022/04/30 05:32:57;;;;;;;17.88;12.95;;;;;;;13.38;61.30;101009.56;5092237;28;20093;-66
2022/04/30 05:35:23;;;;;;;16.33;11.98;;;;;;;13.42;61.18;101007.44;5093893;28;20047;-65
2022/04/30 05:37:48;;;;;;;17.38;12.55;;;;;;;13.43;61.98;101001.94;5093990;28;20106;-66
2022/04/30 05:40:13;;;;;;;17.23;11.43;;;;;;;13.59;62.25;101020.28;5093381;28;20035;-66
2022/04/30 05:42:39;;;;;;;16.83;11.23;;;;;;;13.66;61.26;101011.50;5089873;28;20036;-66
2022/04/30 05:45:06;;;;;;;16.67;10.85;;;;;;;13.73;61.54;101013.66;5092564;28;20507;-64
2022/04/30 05:47:31;;;;;;;15.75;11.07;;;;;;;13.86;61.64;101020.47;5093722;28;20036;-66
2022/04/30 05:49:57;;;;;;;13.90;11.05;;;;;;;13.96;61.33;101017.81;5093777;28;20049;-66
2022/04/30 05:52:22;;;;;;;14.65;11.25;;;;;;;14.07;61.49;101023.94;5092089;28;20114;-66
2022/04/30 05:54:48;;;;;;;14.15;11.63;;;;;;;14.17;61.09;101027.50;5093273;28;20047;-66
2022/04/30 05:57:13;;;;;;;11.02;9.77;;;;;;;14.37;59.42;101018.44;5092271;28;20114;-66
2022/04/30 05:59:39;;;;;;;15.68;11.27;;;;;;;14.42;59.72;101007.25;5093060;28;20056;-66
2022/04/30 06:02:04;;;;;;;18.17;10.85;;;;;;;14.55;59.86;101015.91;5093041;28;20106;-66
2022/04/30 06:04:30;;;;;;;14.75;10.82;;;;;;;14.65;59.00;101017.59;5092621;28;20066;-66
2022/04/30 06:06:55;;;;;;;15.18;10.55;;;;;;;14.72;58.67;101013.31;5093001;28;20030;-66
2022/04/30 06:09:21;;;;;;;15.60;10.75;;;;;;;14.93;58.72;101019.38;5086786;28;20031;-66
2022/04/30 06:11:47;;;;;;;15.48;9.95;;;;;;;15.02;58.34;101012.25;5083485;28;20111;-65
2022/04/30 06:14:13;;;;;;;12.00;8.32;;;;;;;15.16;58.04;101018.03;5105311;28;20114;-63
2022/04/30 06:17:00;;;;;;;13.32;10.52;;;;;;;15.38;56.80;101028.53;5092397;28;20132;-65
2022/04/30 06:19:26;;;;;;;15.48;9.45;;;;;;;15.48;57.24;101032.03;5085396;28;20024;-71
2022/04/30 06:21:53;;;;;;;13.23;9.68;;;;;;;15.58;56.65;101027.44;5092795;28;20027;-71
2022/04/30 06:24:19;;;;;;;13.25;9.77;;;;;;;15.76;56.40;101030.22;5093218;28;20020;-71
2022/04/30 06:26:44;;;;;;;13.90;9.52;;;;;;;15.87;56.40;101022.75;5086136;28;20028;-72
2022/04/30 06:29:10;;;;;;;12.43;9.23;;;;;;;15.96;55.78;101020.97;5087240;28;20356;-70
2022/04/30 06:31:36;;;;;;;11.93;10.10;;;;;;;16.03;55.48;101005.84;5089947;28;20035;-67
2022/04/30 06:34:02;;;;;;;11.65;9.07;;;;;;;16.18;55.54;101017.84;5091984;28;20024;-70
2022/04/30 06:36:28;;;;;;;17.63;9.15;;;;;;;16.26;55.82;101006.25;5090023;28;20479;-72
2022/04/30 06:38:53;;;;;;;17.77;9.18;;;;;;;16.41;55.75;101004.72;5086290;28;20039;-62
2022/04/30 06:41:21;;;;;;;11.32;8.90;;;;;;;16.59;55.12;101010.97;5082700;28;20028;-62
2022/04/30 06:43:46;;;;;;;13.35;9.02;;;;;;;16.77;55.23;101015.38;5087280;28;20035;-62
2022/04/30 06:46:12;;;;;;;10.73;9.15;;;;;;;16.89;54.28;101013.25;5086212;28;20024;-62
2022/04/30 06:48:37;;;;;;;14.13;9.57;;;;;;;16.97;54.03;101010.63;5086962;28;20085;-62
2022/04/30 06:51:04;;;;;;;12.55;9.45;;;;;;;17.05;54.32;101008.81;5088099;28;20020;-63
2022/04/30 06:59:01;;;;;;;14.88;10.32;;;;;;;17.47;53.73;101004.34;5083829;28;20372;-63
2022/04/30 07:01:52;;;;;;;14.63;9.20;;;;;;;17.60;53.15;100999.31;5085434;28;20035;-64
2022/04/30 07:04:18;;;;;;;14.18;9.25;;;;;;;17.75;53.29;100997.69;5081797;28;20070;-67
2022/04/30 07:06:46;;;;;;;13.95;9.40;;;;;;;17.91;52.34;101003.19;5082948;28;20472;-66
2022/04/30 07:09:13;;;;;;;19.45;9.68;;;;;;;17.84;52.09;100985.00;5086799;28;20373;-64
2022/04/30 07:11:39;;;;;;;21.13;10.25;;;;;;;18.00;53.07;100996.72;5085584;28;20055;-63
2022/04/30 07:14:04;;;;;;;443.42;30.10;;;;;;;18.08;53.04;101004.91;5076349;28;20063;-62
2022/04/30 07:16:30;;;;;;;1999.90;356.90;;;;;;;18.23;52.48;101013.25;5095103;28;20406;-63
2022/04/30 07:18:55;;;;;;;1052.63;124.28;;;;;;;18.25;52.27;100992.19;5104553;28;20047;-61
2022/04/30 07:21:21;;;;;;;225.57;27.05;;;;;;;18.52;52.02;101013.69;5103952;28;20031;-60
2022/04/30 07:23:46;;;;;;;515.83;121.10;;;;;;;18.75;50.83;100997.53;5106273;28;20401;-58
2022/04/30 07:26:12;;;;;;;232.57;45.97;;;;;;;18.77;50.84;101000.94;5106458;28;20548;-59
2022/04/30 07:28:37;;;;;;;21.92;10.88;;;;;;;18.80;49.32;100995.16;5105288;28;20039;-59
2022/04/30 07:31:04;;;;;;;19.50;9.65;;;;;;;18.85;48.84;100998.19;5102813;28;20051;-59
2022/04/30 07:33:30;;;;;;;20.48;9.45;;;;;;;18.94;48.84;100998.03;5105304;28;20027;-60
2022/04/30 07:35:56;;;;;;;12.90;8.20;;;;;;;18.95;48.33;100988.84;5102412;28;20042;-60
2022/04/30 07:38:22;;;;;;;19.58;9.00;;;;;;;19.07;49.24;100995.63;5102155;28;20035;-65
2022/04/30 07:40:47;;;;;;;903.97;213.52;;;;;;;19.16;49.57;100993.75;5101131;28;20091;-60
2022/04/30 07:43:13;;;;;;;942.58;80.20;;;;;;;19.16;48.44;100988.31;5104468;28;20031;-60
2022/04/30 07:45:39;;;;;;;41.40;12.02;;;;;;;19.21;48.29;100988.63;5098355;28;20040;-59
2022/04/30 07:48:05;;;;;;;32.72;10.93;;;;;;;19.30;49.28;100999.34;5101250;28;20047;-60
2022/04/30 07:50:35;;;;;;;41.28;12.23;;;;;;;19.40;48.72;100997.28;5101939;28;20400;-59
2022/04/30 07:53:01;;;;;;;13.80;8.57;;;;;;;19.44;47.32;100990.47;5101077;28;20023;-61
2022/04/30 07:55:28;;;;;;;16.60;8.55;;;;;;;19.57;47.74;100996.19;5098758;28;20027;-61
2022/04/30 07:57:54;;;;;;;17.17;8.70;;;;;;;19.68;47.47;101001.28;5096371;28;20031;-65
2022/04/30 08:00:19;;;;;;;17.30;8.48;;;;;;;19.71;46.54;100989.19;5108864;28;20035;-67
2022/04/30 08:02:46;;;;;;;13.07;8.27;;;;;;;19.79;46.02;100979.09;5087755;28;20025;-67
2022/04/30 08:05:12;;;;;;;10.40;7.70;;;;;;;19.91;45.45;100985.84;5108301;28;20414;-68
2022/04/30 08:07:37;;;;;;;24.67;7.80;;;;;;;20.01;45.75;100982.88;5104896;28;20064;-68
2022/04/30 08:10:03;;;;;;;8.68;6.80;;;;;;;20.11;44.88;100975.34;5107307;28;20019;-69
2022/04/30 08:12:28;;;;;;;11.75;6.97;;;;;;;20.29;43.88;100988.69;5102713;28;20815;-69
2022/04/30 08:14:54;;;;;;;12.80;6.82;;;;;;;20.39;43.13;100990.16;5103407;28;20031;-68
2022/04/30 08:17:20;;;;;;;11.15;7.13;;;;;;;20.47;43.22;100978.38;5100337;28;20100;-67
2022/04/30 08:19:45;;;;;;;9.10;6.45;;;;;;;20.54;42.48;100979.31;5091846;28;20130;-67
2022/04/30 08:22:11;;;;;;;11.75;7.18;;;;;;;20.61;42.84;100978.41;5091173;28;20035;-68
2022/04/30 08:24:36;;;;;;;11.88;7.63;;;;;;;20.73;42.13;100987.00;5106710;27;20039;-68
2022/04/30 08:27:02;;;;;;;8.52;6.93;;;;;;;20.80;42.79;100969.69;5105422;28;20464;-67
2022/04/30 08:29:28;;;;;;;10.68;7.47;;;;;;;21.00;42.41;100978.25;5110076;28;20023;-68
2022/04/30 08:31:56;;;;;;;18.42;6.97;;;;;;;21.22;42.94;100982.78;5109698;28;20028;-68
2022/04/30 08:34:22;;;;;;;36.05;7.65;;;;;;;21.56;41.65;100983.06;5106832;28;20050;-66
2022/04/30 08:36:49;;;;;;;13.15;6.20;;;;;;;21.81;41.97;100984.50;5110564;28;20035;-67
2022/04/30 08:39:14;;;;;;;9.70;5.97;;;;;;;22.04;40.34;100977.00;5107532;28;20033;-66
2022/04/30 08:41:42;;;;;;;21.85;7.05;;;;;;;22.19;38.42;100984.09;5106221;28;20510;-66
2022/04/30 08:44:16;;;;;;;10.07;6.07;;;;;;;22.37;38.70;100980.09;5109203;28;20492;-66
2022/04/30 08:46:42;;;;;;;10.38;6.47;;;;;;;22.45;38.69;100969.03;5109215;28;20043;-66
2022/04/30 08:49:08;;;;;;;11.57;6.85;;;;;;;22.45;38.83;100948.00;5109630;28;20023;-66
2022/04/30 08:51:34;;;;;;;13.77;6.32;;;;;;;22.59;39.00;100966.25;5104827;28;20020;-66
2022/04/30 08:54:00;;;;;;;10.32;6.38;;;;;;;22.60;38.26;100961.66;5082037;28;20035;-66
2022/04/30 08:56:25;;;;;;;7.40;5.65;;;;;;;22.65;38.19;100965.47;5087933;28;20031;-66
2022/04/30 08:58:56;;;;;;;9.32;5.20;;;;;;;22.66;36.30;100966.34;5097393;28;20110;-66
2022/04/30 09:01:22;;;;;;;6.50;4.93;;;;;;;22.65;36.53;100962.75;5105669;28;20040;-67
2022/04/30 09:03:48;;;;;;;10.15;5.28;;;;;;;22.64;37.52;100954.72;5088075;28;20044;-59
2022/04/30 09:06:18;;;;;;;7.93;5.45;;;;;;;22.77;37.60;100958.44;5105860;28;20106;-60
2022/04/30 09:08:51;;;;;;;53.22;8.02;;;;;;;22.83;37.58;100952.13;5103261;28;20110;-59
2022/04/30 09:11:17;;;;;;;6.60;4.55;;;;;;;22.74;36.16;100947.88;5098148;28;20096;-59
2022/04/30 09:13:44;;;;;;;8.20;4.97;;;;;;;22.66;36.52;100944.44;5102113;28;20182;-59
2022/04/30 09:16:25;;;;;;;5.93;4.28;;;;;;;22.80;37.05;100947.09;5104175;28;20040;-59
2022/04/30 09:18:52;;;;;;;9.65;5.15;;;;;;;22.88;36.97;100943.34;5099055;28;20479;-59
2022/04/30 09:21:18;;;;;;;7.43;5.05;;;;;;;22.89;36.36;100940.41;5104971;28;20024;-60
2022/04/30 09:23:44;;;;;;;6.97;4.57;;;;;;;22.97;36.49;100934.81;5106195;28;20031;-59
2022/04/30 09:26:11;;;;;;;7.53;4.25;;;;;;;22.93;35.06;100932.66;5106825;28;20063;-59
2022/04/30 09:28:38;;;;;;;9.65;5.15;;;;;;;22.96;36.18;100935.00;5101925;28;20032;-59
2022/04/30 09:31:10;;;;;;;5.00;4.03;;;;;;;22.98;35.95;100932.88;5101363;28;20027;-60
2022/04/30 09:33:36;;;;;;;9.20;4.43;;;;;;;23.00;36.66;100931.66;5099636;28;20040;-59
2022/04/30 09:38:52;;;;;;;7.95;5.05;;;;;;;22.88;36.54;100932.41;5103420;28;20470;-60
2022/04/30 09:41:26;;;;;;;8.35;4.85;;;;;;;22.84;37.11;100923.75;5107618;28;20016;-59
2022/04/30 09:44:06;;;;;;;7.70;4.15;;;;;;;22.80;35.63;100925.22;5103419;28;20031;-59
2022/04/30 09:46:38;;;;;;;6.00;4.10;;;;;;;22.78;35.45;100921.81;5100125;28;20039;-59
2022/04/30 09:54:36;;;;;;;6.45;4.20;;;;;;;22.83;35.82;100916.56;5098415;28;20564;-59
2022/04/30 09:57:04;;;;;;;6.60;4.72;;;;;;;22.88;35.70;100908.63;5096974;28;20083;-60
2022/04/30 09:59:33;;;;;;;4.88;3.90;;;;;;;22.90;36.24;100906.56;5099929;28;20043;-59
2022/04/30 10:02:00;;;;;;;4.70;3.60;;;;;;;22.89;35.75;100906.75;5104580;28;20034;-59
2022/04/30 10:04:26;;;;;;;6.20;3.58;;;;;;;22.87;35.05;100901.47;5076987;28;20024;-58
2022/04/30 10:06:53;;;;;;;4.70;3.95;;;;;;;22.89;34.95;100901.28;5097572;28;20025;-58
2022/04/30 10:09:27;;;;;;;12.68;5.22;;;;;;;22.80;35.36;100888.78;5098646;28;20384;-58
2022/04/30 10:12:33;;;;;;;6.13;3.63;;;;;;;22.73;35.59;100891.47;5103918;28;20035;-58
2022/04/30 10:15:23;;;;;;;10.18;3.75;;;;;;;22.73;35.92;100894.19;5096829;28;20040;-59
2022/04/30 10:17:54;;;;;;;5.28;3.92;;;;;;;22.74;35.32;100873.19;5100500;28;20088;-59
2022/04/30 10:20:35;;;;;;;3.85;3.20;;;;;;;22.84;35.02;100887.34;5100857;28;20485;-58
2022/04/30 10:23:03;;;;;;;6.43;3.92;;;;;;;22.96;35.87;100888.47;5101496;28;20087;-59
2022/04/30 10:25:32;;;;;;;5.55;3.45;;;;;;;22.92;34.30;100879.00;5105581;28;20031;-59
2022/04/30 10:27:57;;;;;;;4.38;3.40;;;;;;;22.91;34.37;100858.13;5104970;28;20027;-59
2022/04/30 10:30:24;;;;;;;4.13;3.00;;;;;;;22.93;31.70;100880.69;5102685;28;20444;-57
2022/04/30 10:33:06;;;;;;;10.40;3.00;;;;;;;22.85;31.52;100876.19;5084702;28;20273;-59
2022/04/30 10:35:39;;;;;;;4.45;2.67;;;;;;;22.84;32.41;100882.72;5098143;28;20042;-59
2022/04/30 10:38:14;;;;;;;9.82;3.53;;;;;;;22.70;32.58;100871.88;5103426;28;20024;-59
2022/04/30 10:40:47;;;;;;;3.30;2.90;;;;;;;22.73;32.51;100866.84;5099402;28;20118;-59
2022/04/30 10:43:16;;;;;;;6.22;2.88;;;;;;;22.72;33.44;100859.69;5107719;28;20020;-59
2022/04/30 10:45:41;;;;;;;4.00;2.83;;;;;;;22.48;30.98;100873.81;5083170;28;22242;-59
2022/04/30 10:48:07;;;;;;;7.30;3.38;;;;;;;22.39;31.01;100861.31;5097803;28;20065;-59
2022/04/30 10:50:32;;;;;;;6.63;3.35;;;;;;;22.42;31.71;100852.72;5102500;28;20432;-59
2022/04/30 10:53:00;;;;;;;5.55;3.28;;;;;;;22.46;31.83;100844.94;5085418;28;20035;-59
2022/04/30 10:55:26;;;;;;;3.30;2.75;;;;;;;22.45;31.81;100852.31;5104225;28;20031;-62
2022/04/30 10:57:52;;;;;;;4.95;3.30;;;;;;;22.37;30.96;100841.50;5105536;28;20073;-60
2022/04/30 11:00:18;;;;;;;7.57;2.70;;;;;;;22.42;31.79;100849.97;5105016;28;20023;-60
2022/04/30 11:02:43;;;;;;;5.97;2.72;;;;;;;22.37;32.46;100836.03;5104986;28;20154;-62
2022/04/30 11:05:23;;;;;;;3.80;2.85;;;;;;;22.47;32.26;100842.00;5102443;28;20098;-62
2022/04/30 11:07:49;;;;;;;4.15;2.85;;;;;;;22.49;31.41;100839.09;5088690;28;20501;-61
2022/04/30 11:10:15;;;;;;;4.22;2.80;;;;;;;22.46;29.97;100836.75;5097211;28;20080;-61
2022/04/30 11:12:40;;;;;;;3.95;2.47;;;;;;;22.46;30.05;100828.53;5104337;28;20027;-61
2022/04/30 11:15:07;;;;;;;6.45;2.60;;;;;;;22.42;30.80;100838.19;5098542;28;20036;-61
2022/04/30 11:17:45;;;;;;;3.22;2.50;;;;;;;22.42;30.72;100840.91;5086830;28;20043;-61
2022/04/30 11:20:21;;;;;;;3.38;2.30;;;;;;;22.51;31.76;100839.78;5100697;28;20064;-62
2022/04/30 11:22:58;;;;;;;2.80;2.25;;;;;;;22.48;31.77;100823.72;5102301;28;20066;-61
2022/04/30 11:25:33;;;;;;;5.00;2.58;;;;;;;22.44;33.12;100828.72;5101722;28;20015;-61
2022/04/30 11:27:58;;;;;;;4.38;2.50;;;;;;;22.49;32.71;100817.22;5104782;28;20054;-61
2022/04/30 11:30:24;;;;;;;4.85;2.53;;;;;;;22.59;32.84;100818.59;5105239;28;20020;-62
2022/04/30 11:32:50;;;;;;;2.40;1.98;;;;;;;22.65;32.50;100825.13;5104233;28;20463;-62
2022/04/30 11:35:16;;;;;;;2.63;2.22;;;;;;;22.60;32.11;100816.72;5098680;28;20062;-62
2022/04/30 11:37:45;;;;;;;2.90;2.47;;;;;;;22.65;32.15;100814.19;5104942;28;20031;-62
2022/04/30 11:40:12;;;;;;;3.60;2.38;;;;;;;22.65;31.54;100828.72;5100922;28;20169;-62
2022/04/30 11:42:37;;;;;;;2.72;2.38;;;;;;;22.41;31.07;100807.28;5103304;28;20547;-61
2022/04/30 11:45:05;;;;;;;2.80;2.25;;;;;;;22.42;31.01;100802.66;5104228;28;20027;-61
2022/04/30 11:47:31;;;;;;;6.00;2.15;;;;;;;22.32;30.57;100808.47;5081031;28;20027;-60
2022/04/30 11:50:11;;;;;;;2.22;2.03;;;;;;;22.26;30.67;100810.13;5102391;28;20042;-61
2022/04/30 11:52:37;;;;;;;4.18;2.40;;;;;;;22.24;31.44;100798.53;5099890;28;21976;-60
2022/04/30 11:55:05;;;;;;;5.18;2.40;;;;;;;22.19;31.82;100797.44;5103835;28;20031;-62